Tpc Longview — V7UK8 — position and weather

sailwx.info

Track history (hours):
 
Tides and Currents Weather Stations Pressure Air Temp Water Temp Dewpoint Dewpoint Depression Visibility Wind Speed Wind Dir Waves Ship Positions

Tpc Longview

Last reported at 2018-Feb-23 14:30 UTC. Time now 2018-Feb-23 14:31 UTC.
Position N 49°26' E 000°16'.

Length 180 m; draft 9.8 m.

Type: Cargo ship. MMSI: 538004166.

Date/timePositionNaut miles runAvg speedWind from/ knotsBaromVisibWave heightAir tempDewpointWater temp
2018-Feb-23 14:30N 49°26' E 000°16'4 7.9
2018-Feb-23 14:00N 49°26' E 000°22'4 7.7
2018-Feb-23 13:30N 49°28' E 000°27'3 5.7
2018-Feb-23 13:00N 49°29' E 000°32'4 7.2
2018-Feb-23 12:30N 49°26' E 000°35'4 8.1
2018-Feb-23 12:00N 49°28' E 000°40'4 7.9
2018-Feb-23 11:30N 49°31' E 000°44'5 9.0
2018-Feb-23 11:00N 49°28' E 000°49'5 9.1
2018-Feb-23 10:30N 49°24' E 000°50'4 8.6
2018-Feb-23 10:00N 49°28' E 000°52'3 6.1
2018-Feb-23 09:30N 49°27' E 000°56'5 9.9
2018-Feb-23 09:00N 49°22' E 000°55'3 5.8
2018-Feb-23 08:31N 49°22' E 000°59'2 4.9
2018-Feb-23 08:00N 49°24' E 001°01'0 0.0
2018-Feb-23 07:28N 49°24' E 001°01'0 0.0
2018-Feb-23 06:58N 49°24' E 001°01'0 0.0
2018-Feb-23 06:28N 49°24' E 001°01'0 0.0
2018-Feb-23 05:58N 49°24' E 001°01'0 0.0
2018-Feb-23 05:28N 49°24' E 001°01'0 0.0
2018-Feb-23 04:58N 49°24' E 001°01'0 0.0
2018-Feb-23 04:28N 49°24' E 001°01'0 0.0
2018-Feb-23 03:58N 49°24' E 001°01'0 0.0
2018-Feb-23 03:28N 49°24' E 001°01'0 0.0
2018-Feb-23 02:58N 49°24' E 001°01'0 0.0
2018-Feb-23 02:28N 49°24' E 001°01'0 0.0
2018-Feb-23 01:58N 49°24' E 001°01'0 0.0
2018-Feb-23 01:28N 49°24' E 001°01'0 0.0
2018-Feb-23 00:58N 49°24' E 001°01'0 0.0
2018-Feb-23 00:28N 49°24' E 001°01'0 0.0
2018-Feb-22 23:58N 49°24' E 001°01'0 0.0
2018-Feb-22 23:28N 49°24' E 001°01'0 0.0
2018-Feb-22 22:58N 49°24' E 001°01'0 0.0
2018-Feb-22 22:28N 49°24' E 001°01'0 0.0
2018-Feb-22 21:58N 49°24' E 001°01'0 0.0
2018-Feb-22 21:28N 49°24' E 001°01'0 0.0
2018-Feb-22 20:58N 49°24' E 001°01'0 0.0
2018-Feb-22 20:25N 49°24' E 001°01'0 0.0
2018-Feb-22 19:58N 49°24' E 001°01'0 0.0
2018-Feb-22 19:25N 49°24' E 001°01'0 0.0
2018-Feb-22 18:58N 49°24' E 001°01'0 0.0
2018-Feb-22 18:28N 49°24' E 001°01'0 0.0
2018-Feb-22 17:58N 49°24' E 001°01'0 0.0
2018-Feb-22 17:28N 49°24' E 001°01'0 0.0
2018-Feb-22 16:58N 49°24' E 001°01'0 0.0
2018-Feb-22 16:28N 49°24' E 001°01'0 0.0
2018-Feb-22 15:58N 49°24' E 001°01'0 0.0
2018-Feb-22 15:28N 49°24' E 001°01'0 0.0
2018-Feb-22 14:58N 49°24' E 001°01'0 0.0
2018-Feb-22 14:28N 49°24' E 001°01'0 0.0
2018-Feb-22 13:58N 49°24' E 001°01'0 0.0
2018-Feb-22 13:28N 49°24' E 001°01'0 0.0
2018-Feb-22 12:58N 49°24' E 001°01'0 0.0
2018-Feb-22 12:28N 49°24' E 001°01'0 0.0
2018-Feb-22 11:55N 49°24' E 001°01'0 0.0
2018-Feb-22 11:28N 49°24' E 001°01'0 0.0
2018-Feb-22 10:58N 49°24' E 001°01'0 0.0
2018-Feb-22 10:28N 49°24' E 001°01'0 0.0
2018-Feb-22 09:58N 49°24' E 001°01'0 0.0
2018-Feb-22 09:25N 49°24' E 001°01'0 0.0
2018-Feb-22 08:58N 49°24' E 001°01'0 0.0
2018-Feb-22 08:28N 49°24' E 001°01'0 0.0
2018-Feb-22 07:58N 49°24' E 001°01'0 0.0
2018-Feb-22 07:28N 49°24' E 001°01'0 0.0
2018-Feb-22 06:55N 49°24' E 001°01'0 0.0
2018-Feb-22 06:28N 49°24' E 001°01'0 0.0
2018-Feb-22 05:58N 49°24' E 001°01'0 0.0
2018-Feb-22 05:28N 49°24' E 001°01'0 0.0
2018-Feb-22 04:58N 49°24' E 001°01'0 0.0
2018-Feb-22 04:28N 49°24' E 001°01'0 0.0
2018-Feb-22 03:58N 49°24' E 001°01'0 0.0
2018-Feb-22 03:28N 49°24' E 001°01'0 0.0
2018-Feb-22 02:58N 49°24' E 001°01'0 0.0
2018-Feb-22 02:28N 49°24' E 001°01'0 0.0
2018-Feb-22 01:58N 49°24' E 001°01'0 0.0
2018-Feb-22 01:28N 49°24' E 001°01'0 0.0
2018-Feb-22 00:58N 49°24' E 001°01'0 0.0
2018-Feb-22 00:28N 49°24' E 001°01'0 0.0
2018-Feb-21 23:58N 49°24' E 001°01'0 0.0
2018-Feb-21 23:28N 49°24' E 001°01'0 0.0
2018-Feb-21 22:58N 49°24' E 001°01'0 0.0
2018-Feb-21 22:28N 49°24' E 001°01'0 0.0
2018-Feb-21 21:58N 49°24' E 001°01'0 0.0
2018-Feb-21 21:28N 49°24' E 001°01'0 0.0
2018-Feb-21 20:58N 49°24' E 001°01'0 0.0
2018-Feb-21 20:28N 49°24' E 001°01'0 0.0
2018-Feb-21 19:58N 49°24' E 001°01'0 0.0
2018-Feb-21 19:28N 49°24' E 001°01'0 0.0
2018-Feb-21 18:58N 49°24' E 001°01'0 0.0
2018-Feb-21 18:28N 49°24' E 001°01'0 0.0
2018-Feb-21 17:58N 49°24' E 001°01'0 0.0
2018-Feb-21 17:28N 49°24' E 001°01'0 0.0
2018-Feb-21 16:58N 49°24' E 001°01'0 0.0
2018-Feb-21 16:28N 49°24' E 001°01'0 0.0
2018-Feb-21 15:58N 49°24' E 001°01'0 0.0
2018-Feb-21 15:28N 49°24' E 001°01'0 0.0
2018-Feb-21 14:58N 49°24' E 001°01'0 0.0
2018-Feb-21 14:28N 49°24' E 001°01'0 0.0
2018-Feb-21 13:55N 49°24' E 001°01'0 0.0
2018-Feb-21 13:28N 49°24' E 001°01'0 0.0
2018-Feb-21 12:58N 49°24' E 001°01'0 0.0
2018-Feb-21 12:28N 49°24' E 001°01'0 0.0
2018-Feb-21 11:58N 49°24' E 001°01'0 0.0
2018-Feb-21 11:28N 49°24' E 001°01'0 0.0
2018-Feb-21 10:58N 49°24' E 001°01'0 0.0
2018-Feb-21 10:28N 49°24' E 001°01'0 0.0
2018-Feb-21 09:58N 49°24' E 001°01'0 0.0
2018-Feb-21 09:28N 49°24' E 001°01'0 0.0
2018-Feb-21 08:58N 49°24' E 001°01'0 0.0
2018-Feb-21 08:28N 49°24' E 001°01'0 0.0
2018-Feb-21 07:58N 49°24' E 001°01'0 0.0
2018-Feb-21 07:28N 49°24' E 001°01'0 0.0
2018-Feb-21 06:58N 49°24' E 001°01'0 0.0
2018-Feb-21 06:28N 49°24' E 001°01'0 0.0
2018-Feb-21 05:58N 49°24' E 001°01'0 0.0
2018-Feb-21 05:28N 49°24' E 001°01'0 0.0
2018-Feb-21 04:58N 49°24' E 001°01'0 0.0
2018-Feb-21 04:25N 49°24' E 001°01'0 0.0
2018-Feb-21 03:58N 49°24' E 001°01'0 0.0
2018-Feb-21 03:28N 49°24' E 001°01'0 0.0
2018-Feb-21 02:58N 49°24' E 001°01'0 0.0
2018-Feb-21 02:28N 49°24' E 001°01'0 0.0
2018-Feb-21 01:58N 49°24' E 001°01'0 0.0
2018-Feb-21 01:28N 49°24' E 001°01'0 0.0
2018-Feb-21 00:55N 49°24' E 001°01'0 0.0
2018-Feb-21 00:28N 49°24' E 001°01'0 0.0
2018-Feb-20 23:58N 49°24' E 001°01'0 0.0
2018-Feb-20 23:28N 49°24' E 001°01'0 0.0
2018-Feb-20 22:58N 49°24' E 001°01'0 0.0
2018-Feb-20 22:28N 49°24' E 001°01'0 0.0
2018-Feb-20 21:58N 49°24' E 001°01'0 0.0
2018-Feb-20 21:28N 49°24' E 001°01'0 0.0
2018-Feb-20 20:58N 49°24' E 001°01'0 0.0
2018-Feb-20 20:28N 49°24' E 001°01'0 0.0
2018-Feb-20 19:58N 49°24' E 001°01'0 0.0
2018-Feb-20 19:28N 49°24' E 001°01'0 0.0
2018-Feb-20 18:58N 49°24' E 001°01'0 0.0
2018-Feb-20 18:28N 49°24' E 001°01'0 0.0
2018-Feb-20 17:58N 49°24' E 001°01'0 0.0
2018-Feb-20 17:28N 49°24' E 001°01'0 0.0
2018-Feb-20 16:58N 49°24' E 001°01'0 0.0
2018-Feb-20 16:28N 49°24' E 001°01'0 0.0
2018-Feb-20 15:58N 49°24' E 001°01'0 0.0
2018-Feb-20 15:25N 49°24' E 001°01'0 0.0
2018-Feb-20 14:58N 49°24' E 001°01'0 0.0
2018-Feb-20 14:28N 49°24' E 001°01'0 0.0
2018-Feb-20 13:58N 49°24' E 001°01'0 0.0
2018-Feb-20 13:28N 49°24' E 001°01'0 0.0
2018-Feb-20 12:58N 49°24' E 001°01'0 0.0
2018-Feb-20 12:28N 49°24' E 001°01'0 0.0
2018-Feb-20 11:49N 49°24' E 001°01'0 0.0
2018-Feb-20 11:28N 49°24' E 001°01'0 0.0
2018-Feb-20 10:58N 49°24' E 001°01'0 0.0
2018-Feb-20 10:28N 49°24' E 001°01'0 0.0
2018-Feb-20 09:58N 49°24' E 001°01'0 0.0
2018-Feb-20 09:25N 49°24' E 001°01'0 0.0
2018-Feb-20 08:58N 49°24' E 001°01'0 0.0
2018-Feb-20 08:25N 49°24' E 001°01'0 0.0
2018-Feb-20 07:58N 49°24' E 001°01'0 0.0
2018-Feb-20 07:28N 49°24' E 001°01'0 0.0
2018-Feb-20 06:58N 49°24' E 001°01'0 0.0
2018-Feb-20 06:28N 49°24' E 001°01'0 0.0
2018-Feb-20 05:55N 49°24' E 001°01'0 0.0
2018-Feb-20 05:28N 49°24' E 001°01'0 0.0
2018-Feb-20 04:55N 49°24' E 001°01'0 0.0
2018-Feb-20 04:28N 49°24' E 001°01'0 0.0
2018-Feb-20 03:58N 49°24' E 001°01'0 0.0
2018-Feb-20 03:31N 49°24' E 001°01'1 2.2
2018-Feb-20 03:01N 49°23' E 001°01'1 2.3
2018-Feb-20 02:31N 49°22' E 000°60'3 6.2
2018-Feb-20 02:01N 49°23' E 000°55'510.7
2018-Feb-20 01:31N 49°28' E 000°56'3 6.3
2018-Feb-20 01:01N 49°27' E 000°51'3 6.1
2018-Feb-20 00:31N 49°24' E 000°49'4 8.8
2018-Feb-20 00:01N 49°29' E 000°47'4 8.7
2018-Feb-19 23:31N 49°31' E 000°42'611.3
2018-Feb-19 23:00N 49°26' E 000°38'510.5
2018-Feb-19 22:30N 49°29' E 000°31'612.6
2018-Feb-19 22:00N 49°26' E 000°22'713.7
2018-Feb-19 21:31N 49°26' E 000°12'714.1
2018-Feb-19 21:01N 49°27' E 000°01'611.0
2018-Feb-19 20:30N 49°29' W 000°07'510.6
2018-Feb-19 20:00N 49°31' W 000°15'713.0
2018-Feb-19 19:30N 49°33' W 000°24'612.6
2018-Feb-19 19:00N 49°36' W 000°33'612.4
2018-Feb-19 18:30N 49°39' W 000°41'510.5
2018-Feb-19 18:00N 49°42' W 000°47'1 1.2
2018-Feb-19 17:25N 49°42' W 000°47'1 1.5
2018-Feb-19 16:55N 49°41' W 000°46'1 2.3
2018-Feb-19 16:30N 49°41' W 000°45'5 9.5
2018-Feb-19 16:00N 49°45' W 000°41'612.1
2018-Feb-19 15:30N 49°50' W 000°37'510.6
2018-Feb-19 15:00N 49°56' W 000°37'3 3.6
2018-Feb-19 14:18N 49°58' W 000°38'0 0.1
2018-Feb-19 14:00N 49°58' W 000°38'0 0.7
2018-Feb-19 13:27N 49°58' W 000°39'1 1.4
2018-Feb-19 13:00N 49°58' W 000°40'1 2.1
2018-Feb-19 12:18N 49°58' W 000°42'1 2.7
2018-Feb-19 12:00N 49°58' W 000°43'2 3.2
2018-Feb-19 11:30N 49°58' W 000°46'2 3.5
2018-Feb-19 11:00N 49°58' W 000°49'2 3.7
2018-Feb-19 10:30N 49°58' W 000°52'2 3.9
2018-Feb-19 10:00N 49°58' W 000°55'2 4.0
2018-Feb-19 09:30N 49°58' W 000°58'2 3.9
2018-Feb-19 09:00N 49°58' W 001°01'2 3.4
2018-Feb-19 08:31N 49°58' W 001°03'1 2.4
2018-Feb-19 07:59N 49°58' W 001°05'1 1.5
2018-Feb-19 07:29N 49°58' W 001°06'0 0.4
2018-Feb-19 06:59N 49°58' W 001°07'0 0.5
2018-Feb-19 06:29N 49°58' W 001°06'1 1.4
2018-Feb-19 05:59N 49°58' W 001°05'1 2.0
2018-Feb-19 05:27N 49°58' W 001°04'1 2.7
2018-Feb-19 05:01N 49°58' W 001°02'1 2.9
2018-Feb-19 04:30N 49°58' W 000°60'1 2.9
2018-Feb-19 04:01N 49°57' W 000°57'1 2.8
2018-Feb-19 03:30N 49°57' W 000°55'1 2.4
2018-Feb-19 03:00N 49°57' W 000°53'1 1.9
2018-Feb-19 02:27N 49°56' W 000°52'1 1.4
2018-Feb-19 02:00N 49°56' W 000°51'0 0.8
2018-Feb-19 01:30N 49°56' W 000°51'0 0.5
2018-Feb-19 01:00N 49°56' W 000°51'1 1.0
2018-Feb-19 00:30N 49°56' W 000°52'1 1.8
2018-Feb-19 00:00N 49°55' W 000°53'1 2.4
2018-Feb-18 23:30N 49°55' W 000°55'1 2.9
2018-Feb-18 23:00N 49°55' W 000°57'2 3.4
2018-Feb-18 22:30N 49°55' W 000°60'2 3.8
2018-Feb-18 22:00N 49°55' W 001°03'2 4.1
2018-Feb-18 21:30N 49°55' W 001°06'3 6.2
2018-Feb-18 21:00N 49°56' W 001°10'510.8
2018-Feb-18 20:30N 50°00' W 001°16'3 4.9
2018-Feb-18 19:58N 50°02' W 001°19'1 2.1
2018-Feb-18 19:28N 50°02' W 001°20'1 1.2
2018-Feb-18 18:58N 50°01' W 001°21'1 1.1
2018-Feb-18 18:30N 50°01' W 001°22'2 4.5
2018-Feb-18 18:00N 50°01' W 001°26'2 3.8
2018-Feb-18 17:30N 50°01' W 001°28'2 4.1
2018-Feb-18 17:00N 50°01' W 001°32'3 5.2
2018-Feb-18 16:30N 50°01' W 001°36'1 2.2
2018-Feb-18 16:00N 50°01' W 001°34'2 3.8
2018-Feb-18 15:30N 50°01' W 001°31'2 3.7
2018-Feb-18 15:00N 50°01' W 001°28'1 2.0
2018-Feb-18 14:29N 50°01' W 001°27'4 7.4
2018-Feb-18 14:00N 49°59' W 001°31'510.0
2018-Feb-18 13:30N 49°57' W 001°39'611.3
2018-Feb-18 13:00N 49°57' W 001°47'612.2
2018-Feb-18 12:30N 49°57' W 001°57'612.8
2018-Feb-18 12:00N 49°56' W 002°07'712.9
2018-Feb-18 11:30N 49°56' W 002°17'814.0
2018-Feb-18 10:54N 49°54' W 002°29'714.1
2018-Feb-18 10:25N 49°52' W 002°39'714.1
2018-Feb-18 09:57N 49°50' W 002°49'814.2
2018-Feb-18 09:25N 49°47' W 003°00'814.0
2018-Feb-18 08:51N 49°43' W 003°10'9014.0
2018-Feb-18 02:23N 48°58' W 005°10'512.7
2018-Feb-18 01:58N 48°55' W 005°17'612.3
2018-Feb-18 01:31N 48°52' W 005°25'811.8
2018-Feb-18 00:49N 48°48' W 005°35'411.2
2018-Feb-18 00:30N 48°45' W 005°38'911.1
2018-Feb-17 23:42N 48°37' W 005°44'710.8
2018-Feb-17 23:01N 48°30' W 005°48'1010.9
2018-Feb-17 22:06N 48°21' W 005°54'5912.2
2018-Feb-17 17:13N 47°33' W 006°46'22010.8
2018-Feb-16 20:54N 43°57' W 005°42'510.5
2018-Feb-16 20:29N 43°53' W 005°41'511.0
2018-Feb-16 20:00N 43°47' W 005°40'611.2
2018-Feb-16 19:30N 43°42' W 005°39'611.7
2018-Feb-16 19:00N 43°36' W 005°39'3 4.3
2018-Feb-16 18:18N 43°34' W 005°41'0 0.0
2018-Feb-16 18:00N 43°34' W 005°41'0 0.0
2018-Feb-16 17:30N 43°34' W 005°41'0 0.0
2018-Feb-16 17:00N 43°34' W 005°41'0 0.0
2018-Feb-16 16:24N 43°34' W 005°41'0 0.0
2018-Feb-16 15:54N 43°34' W 005°41'0 0.0
2018-Feb-16 15:30N 43°34' W 005°41'0 0.0
2018-Feb-16 15:00N 43°34' W 005°41'0 0.0
2018-Feb-16 14:24N 43°34' W 005°41'0 0.0
2018-Feb-16 13:59N 43°34' W 005°41'0 0.0
2018-Feb-16 13:30N 43°34' W 005°41'0 0.0
2018-Feb-16 13:00N 43°34' W 005°41'0 0.0
2018-Feb-16 12:30N 43°34' W 005°41'0 0.0
2018-Feb-16 11:18N 43°34' W 005°41'0 0.0
2018-Feb-16 10:54N 43°34' W 005°41'0 0.0
2018-Feb-16 10:30N 43°34' W 005°41'0 0.0
2018-Feb-16 09:42N 43°34' W 005°41'0 0.0
2018-Feb-16 09:30N 43°34' W 005°41'0 0.0
2018-Feb-16 09:00N 43°34' W 005°41'0 0.0
2018-Feb-16 08:30N 43°34' W 005°41'0 0.0
2018-Feb-16 08:00N 43°34' W 005°41'0 0.0
2018-Feb-16 07:24N 43°34' W 005°41'0 0.0
2018-Feb-16 07:00N 43°34' W 005°41'0 0.0
2018-Feb-16 06:30N 43°34' W 005°41'0 0.0
2018-Feb-16 06:00N 43°34' W 005°41'0 0.0
2018-Feb-16 05:30N 43°34' W 005°41'0 0.0
2018-Feb-16 04:53N 43°34' W 005°41'0 0.0
2018-Feb-16 04:29N 43°34' W 005°41'0 0.0
2018-Feb-16 03:59N 43°34' W 005°41'0 0.0
2018-Feb-16 03:30N 43°34' W 005°41'0 0.0
2018-Feb-16 02:59N 43°34' W 005°41'0 0.0
2018-Feb-16 02:29N 43°34' W 005°41'0 0.0
2018-Feb-16 01:59N 43°34' W 005°41'0 0.0
2018-Feb-16 01:30N 43°34' W 005°41'0 0.0
2018-Feb-15 20:59N 43°34' W 005°41'0 0.0
2018-Feb-15 20:29N 43°34' W 005°41'0 0.0
2018-Feb-15 19:59N 43°34' W 005°41'0 0.0
2018-Feb-15 19:29N 43°34' W 005°41'0 0.0
2018-Feb-15 18:47N 43°34' W 005°41'0 0.0
2018-Feb-15 18:23N 43°34' W 005°41'0 0.0
2018-Feb-15 18:00N 43°34' W 005°41'0 0.0
2018-Feb-15 17:17N 43°34' W 005°41'0 0.0
2018-Feb-15 16:53N 43°34' W 005°41'0 0.0
2018-Feb-15 16:17N 43°34' W 005°41'0 0.0
2018-Feb-15 15:59N 43°34' W 005°41'0 0.0
2018-Feb-15 15:29N 43°34' W 005°41'0 0.0
2018-Feb-15 14:53N 43°34' W 005°41'0 0.0
2018-Feb-15 14:29N 43°34' W 005°41'0 0.0
2018-Feb-15 13:59N 43°34' W 005°41'0 0.0
2018-Feb-15 13:30N 43°34' W 005°41'0 0.0
2018-Feb-15 12:59N 43°34' W 005°41'0 0.0
2018-Feb-15 12:29N 43°34' W 005°41'0 0.0
2018-Feb-15 11:59N 43°34' W 005°41'0 0.0
2018-Feb-15 11:23N 43°34' W 005°41'0 0.0
2018-Feb-15 10:59N 43°34' W 005°41'0 0.0
2018-Feb-15 10:23N 43°34' W 005°41'0 0.0
2018-Feb-15 09:59N 43°34' W 005°41'0 0.0
2018-Feb-15 09:29N 43°34' W 005°41'0 0.0
2018-Feb-15 08:59N 43°34' W 005°41'0 0.0
2018-Feb-15 08:29N 43°34' W 005°41'0 0.0
2018-Feb-15 07:59N 43°34' W 005°41'0 0.0
2018-Feb-15 07:23N 43°34' W 005°41'0 0.0
2018-Feb-15 06:59N 43°34' W 005°41'0 0.0
2018-Feb-15 06:17N 43°34' W 005°41'0 0.0
2018-Feb-15 05:59N 43°34' W 005°41'0 0.0
2018-Feb-15 05:29N 43°34' W 005°41'0 0.0
2018-Feb-15 04:59N 43°34' W 005°41'0 0.0
2018-Feb-15 04:29N 43°34' W 005°41'0 0.0
2018-Feb-15 03:53N 43°34' W 005°41'0 0.0
2018-Feb-15 03:23N 43°34' W 005°41'0 0.0
2018-Feb-15 02:53N 43°34' W 005°41'0 0.0
2018-Feb-15 02:23N 43°34' W 005°41'0 0.0
2018-Feb-15 01:59N 43°34' W 005°41'0 0.0
2018-Feb-15 01:23N 43°34' W 005°41'0 0.0
2018-Feb-15 00:59N 43°34' W 005°41'0 0.0
2018-Feb-15 00:29N 43°34' W 005°41'0 0.0
2018-Feb-14 23:59N 43°34' W 005°41'0 0.0
2018-Feb-14 23:29N 43°34' W 005°41'0 0.0
2018-Feb-14 22:53N 43°34' W 005°41'0 0.0
2018-Feb-14 20:47N 43°34' W 005°41'0 0.0
2018-Feb-14 20:29N 43°34' W 005°41'0 0.0
2018-Feb-14 19:59N 43°34' W 005°41'0 0.0
2018-Feb-14 19:29N 43°34' W 005°41'0 0.0
2018-Feb-14 18:59N 43°34' W 005°41'0 0.0
2018-Feb-14 18:29N 43°34' W 005°41'0 0.0
2018-Feb-14 17:59N 43°34' W 005°41'0 0.0
2018-Feb-14 17:29N 43°34' W 005°41'0 0.0
2018-Feb-14 16:59N 43°34' W 005°41'0 0.0
2018-Feb-14 16:29N 43°34' W 005°41'0 0.0
2018-Feb-14 15:59N 43°34' W 005°41'0 0.0
2018-Feb-14 15:29N 43°34' W 005°41'0 0.0
2018-Feb-14 14:53N 43°34' W 005°41'0 0.0
2018-Feb-14 14:11N 43°34' W 005°41'0 0.0
2018-Feb-14 13:59N 43°34' W 005°41'0 0.0
2018-Feb-14 13:29N 43°34' W 005°41'0 0.0
2018-Feb-14 12:53N 43°34' W 005°41'0 0.0
2018-Feb-14 12:23N 43°34' W 005°41'0 0.0
2018-Feb-14 11:59N 43°34' W 005°41'0 0.0
2018-Feb-14 11:23N 43°34' W 005°41'0 0.0
2018-Feb-14 10:59N 43°34' W 005°41'0 0.0
2018-Feb-14 10:23N 43°34' W 005°41'0 0.0
2018-Feb-14 09:59N 43°34' W 005°41'0 0.0
2018-Feb-14 09:29N 43°34' W 005°41'0 0.0
2018-Feb-14 08:35N 43°34' W 005°41'0 0.0
2018-Feb-14 08:23N 43°34' W 005°41'0 0.0
2018-Feb-14 07:59N 43°34' W 005°41'0 0.0
2018-Feb-14 07:23N 43°34' W 005°41'0 0.0
2018-Feb-14 06:59N 43°34' W 005°41'0 0.0
2018-Feb-14 06:29N 43°34' W 005°41'0 0.0
2018-Feb-14 05:59N 43°34' W 005°41'0 0.0
2018-Feb-14 05:29N 43°34' W 005°41'0 0.0
2018-Feb-14 04:47N 43°34' W 005°41'0 0.0
2018-Feb-14 04:29N 43°34' W 005°41'0 0.0
2018-Feb-14 03:59N 43°34' W 005°41'0 0.0
2018-Feb-14 03:29N 43°34' W 005°41'0 0.0
2018-Feb-14 02:59N 43°34' W 005°41'0 0.0
2018-Feb-14 02:29N 43°34' W 005°41'0 0.0
2018-Feb-14 01:59N 43°34' W 005°41'0 0.0
2018-Feb-14 01:29N 43°34' W 005°41'0 0.0
2018-Feb-14 00:53N 43°34' W 005°41'0 0.0
2018-Feb-14 00:23N 43°34' W 005°41'0 0.0
2018-Feb-13 23:59N 43°34' W 005°41'0 0.0
2018-Feb-13 23:17N 43°34' W 005°41'0 0.0
2018-Feb-13 22:59N 43°34' W 005°41'0 0.0
2018-Feb-13 22:23N 43°34' W 005°41'0 0.0
2018-Feb-13 20:41N 43°34' W 005°41'0 0.0
2018-Feb-13 20:29N 43°34' W 005°41'0 0.0
2018-Feb-13 19:59N 43°34' W 005°41'0 0.0
2018-Feb-13 19:23N 43°34' W 005°41'0 0.0
2018-Feb-13 18:59N 43°34' W 005°41'0 0.0
2018-Feb-13 18:11N 43°34' W 005°41'0 0.0
2018-Feb-13 15:11N 43°34' W 005°41'0 0.0
2018-Feb-13 14:59N 43°34' W 005°41'  
Track history (hours):
 
Tides and Currents Weather Stations Pressure Air Temp Water Temp Dewpoint Dewpoint Depression Visibility Wind Speed Wind Dir Waves Ship Positions

Tpc Longview

Last reported at 2018-Feb-23 14:30 UTC. Time now 2018-Feb-23 14:31 UTC.
Position N 49°26' E 000°16'.

Length 180 m; draft 9.8 m.

Type: Cargo ship. MMSI: 538004166.

Date/timePositionNaut miles runAvg speedWind from/ knotsBaromVisibWave heightAir tempDewpointWater temp
2018-Feb-23 14:30N 49°26' E 000°16'4 7.9
2018-Feb-23 14:00N 49°26' E 000°22'4 7.7
2018-Feb-23 13:30N 49°28' E 000°27'3 5.7
2018-Feb-23 13:00N 49°29' E 000°32'4 7.2
2018-Feb-23 12:30N 49°26' E 000°35'4 8.1
2018-Feb-23 12:00N 49°28' E 000°40'4 7.9
2018-Feb-23 11:30N 49°31' E 000°44'5 9.0
2018-Feb-23 11:00N 49°28' E 000°49'5 9.1
2018-Feb-23 10:30N 49°24' E 000°50'4 8.6
2018-Feb-23 10:00N 49°28' E 000°52'3 6.1
2018-Feb-23 09:30N 49°27' E 000°56'5 9.9
2018-Feb-23 09:00N 49°22' E 000°55'3 5.8
2018-Feb-23 08:31N 49°22' E 000°59'2 4.9
2018-Feb-23 08:00N 49°24' E 001°01'0 0.0
2018-Feb-23 07:28N 49°24' E 001°01'0 0.0
2018-Feb-23 06:58N 49°24' E 001°01'0 0.0
2018-Feb-23 06:28N 49°24' E 001°01'0 0.0
2018-Feb-23 05:58N 49°24' E 001°01'0 0.0
2018-Feb-23 05:28N 49°24' E 001°01'0 0.0
2018-Feb-23 04:58N 49°24' E 001°01'0 0.0
2018-Feb-23 04:28N 49°24' E 001°01'0 0.0
2018-Feb-23 03:58N 49°24' E 001°01'0 0.0
2018-Feb-23 03:28N 49°24' E 001°01'0 0.0
2018-Feb-23 02:58N 49°24' E 001°01'0 0.0
2018-Feb-23 02:28N 49°24' E 001°01'0 0.0
2018-Feb-23 01:58N 49°24' E 001°01'0 0.0
2018-Feb-23 01:28N 49°24' E 001°01'0 0.0
2018-Feb-23 00:58N 49°24' E 001°01'0 0.0
2018-Feb-23 00:28N 49°24' E 001°01'0 0.0
2018-Feb-22 23:58N 49°24' E 001°01'0 0.0
2018-Feb-22 23:28N 49°24' E 001°01'0 0.0
2018-Feb-22 22:58N 49°24' E 001°01'0 0.0
2018-Feb-22 22:28N 49°24' E 001°01'0 0.0
2018-Feb-22 21:58N 49°24' E 001°01'0 0.0
2018-Feb-22 21:28N 49°24' E 001°01'0 0.0
2018-Feb-22 20:58N 49°24' E 001°01'0 0.0
2018-Feb-22 20:25N 49°24' E 001°01'0 0.0
2018-Feb-22 19:58N 49°24' E 001°01'0 0.0
2018-Feb-22 19:25N 49°24' E 001°01'0 0.0
2018-Feb-22 18:58N 49°24' E 001°01'0 0.0
2018-Feb-22 18:28N 49°24' E 001°01'0 0.0
2018-Feb-22 17:58N 49°24' E 001°01'0 0.0
2018-Feb-22 17:28N 49°24' E 001°01'0 0.0
2018-Feb-22 16:58N 49°24' E 001°01'0 0.0
2018-Feb-22 16:28N 49°24' E 001°01'0 0.0
2018-Feb-22 15:58N 49°24' E 001°01'0 0.0
2018-Feb-22 15:28N 49°24' E 001°01'0 0.0
2018-Feb-22 14:58N 49°24' E 001°01'0 0.0
2018-Feb-22 14:28N 49°24' E 001°01'0 0.0
2018-Feb-22 13:58N 49°24' E 001°01'0 0.0
2018-Feb-22 13:28N 49°24' E 001°01'0 0.0
2018-Feb-22 12:58N 49°24' E 001°01'0 0.0
2018-Feb-22 12:28N 49°24' E 001°01'0 0.0
2018-Feb-22 11:55N 49°24' E 001°01'0 0.0
2018-Feb-22 11:28N 49°24' E 001°01'0 0.0
2018-Feb-22 10:58N 49°24' E 001°01'0 0.0
2018-Feb-22 10:28N 49°24' E 001°01'0 0.0
2018-Feb-22 09:58N 49°24' E 001°01'0 0.0
2018-Feb-22 09:25N 49°24' E 001°01'0 0.0
2018-Feb-22 08:58N 49°24' E 001°01'0 0.0
2018-Feb-22 08:28N 49°24' E 001°01'0 0.0
2018-Feb-22 07:58N 49°24' E 001°01'0 0.0
2018-Feb-22 07:28N 49°24' E 001°01'0 0.0
2018-Feb-22 06:55N 49°24' E 001°01'0 0.0
2018-Feb-22 06:28N 49°24' E 001°01'0 0.0
2018-Feb-22 05:58N 49°24' E 001°01'0 0.0
2018-Feb-22 05:28N 49°24' E 001°01'0 0.0
2018-Feb-22 04:58N 49°24' E 001°01'0 0.0
2018-Feb-22 04:28N 49°24' E 001°01'0 0.0
2018-Feb-22 03:58N 49°24' E 001°01'0 0.0
2018-Feb-22 03:28N 49°24' E 001°01'0 0.0
2018-Feb-22 02:58N 49°24' E 001°01'0 0.0
2018-Feb-22 02:28N 49°24' E 001°01'0 0.0
2018-Feb-22 01:58N 49°24' E 001°01'0 0.0
2018-Feb-22 01:28N 49°24' E 001°01'0 0.0
2018-Feb-22 00:58N 49°24' E 001°01'0 0.0
2018-Feb-22 00:28N 49°24' E 001°01'0 0.0
2018-Feb-21 23:58N 49°24' E 001°01'0 0.0
2018-Feb-21 23:28N 49°24' E 001°01'0 0.0
2018-Feb-21 22:58N 49°24' E 001°01'0 0.0
2018-Feb-21 22:28N 49°24' E 001°01'0 0.0
2018-Feb-21 21:58N 49°24' E 001°01'0 0.0
2018-Feb-21 21:28N 49°24' E 001°01'0 0.0
2018-Feb-21 20:58N 49°24' E 001°01'0 0.0
2018-Feb-21 20:28N 49°24' E 001°01'0 0.0
2018-Feb-21 19:58N 49°24' E 001°01'0 0.0
2018-Feb-21 19:28N 49°24' E 001°01'0 0.0
2018-Feb-21 18:58N 49°24' E 001°01'0 0.0
2018-Feb-21 18:28N 49°24' E 001°01'0 0.0
2018-Feb-21 17:58N 49°24' E 001°01'0 0.0
2018-Feb-21 17:28N 49°24' E 001°01'0 0.0
2018-Feb-21 16:58N 49°24' E 001°01'0 0.0
2018-Feb-21 16:28N 49°24' E 001°01'0 0.0
2018-Feb-21 15:58N 49°24' E 001°01'0 0.0
2018-Feb-21 15:28N 49°24' E 001°01'0 0.0
2018-Feb-21 14:58N 49°24' E 001°01'0 0.0
2018-Feb-21 14:28N 49°24' E 001°01'0 0.0
2018-Feb-21 13:55N 49°24' E 001°01'0 0.0
2018-Feb-21 13:28N 49°24' E 001°01'0 0.0
2018-Feb-21 12:58N 49°24' E 001°01'0 0.0
2018-Feb-21 12:28N 49°24' E 001°01'0 0.0
2018-Feb-21 11:58N 49°24' E 001°01'0 0.0
2018-Feb-21 11:28N 49°24' E 001°01'0 0.0
2018-Feb-21 10:58N 49°24' E 001°01'0 0.0
2018-Feb-21 10:28N 49°24' E 001°01'0 0.0
2018-Feb-21 09:58N 49°24' E 001°01'0 0.0
2018-Feb-21 09:28N 49°24' E 001°01'0 0.0
2018-Feb-21 08:58N 49°24' E 001°01'0 0.0
2018-Feb-21 08:28N 49°24' E 001°01'0 0.0
2018-Feb-21 07:58N 49°24' E 001°01'0 0.0
2018-Feb-21 07:28N 49°24' E 001°01'0 0.0
2018-Feb-21 06:58N 49°24' E 001°01'0 0.0
2018-Feb-21 06:28N 49°24' E 001°01'0 0.0
2018-Feb-21 05:58N 49°24' E 001°01'0 0.0
2018-Feb-21 05:28N 49°24' E 001°01'0 0.0
2018-Feb-21 04:58N 49°24' E 001°01'0 0.0
2018-Feb-21 04:25N 49°24' E 001°01'0 0.0
2018-Feb-21 03:58N 49°24' E 001°01'0 0.0
2018-Feb-21 03:28N 49°24' E 001°01'0 0.0
2018-Feb-21 02:58N 49°24' E 001°01'0 0.0
2018-Feb-21 02:28N 49°24' E 001°01'0 0.0
2018-Feb-21 01:58N 49°24' E 001°01'0 0.0
2018-Feb-21 01:28N 49°24' E 001°01'0 0.0
2018-Feb-21 00:55N 49°24' E 001°01'0 0.0
2018-Feb-21 00:28N 49°24' E 001°01'0 0.0
2018-Feb-20 23:58N 49°24' E 001°01'0 0.0
2018-Feb-20 23:28N 49°24' E 001°01'0 0.0
2018-Feb-20 22:58N 49°24' E 001°01'0 0.0
2018-Feb-20 22:28N 49°24' E 001°01'0 0.0
2018-Feb-20 21:58N 49°24' E 001°01'0 0.0
2018-Feb-20 21:28N 49°24' E 001°01'0 0.0
2018-Feb-20 20:58N 49°24' E 001°01'0 0.0
2018-Feb-20 20:28N 49°24' E 001°01'0 0.0
2018-Feb-20 19:58N 49°24' E 001°01'0 0.0
2018-Feb-20 19:28N 49°24' E 001°01'0 0.0
2018-Feb-20 18:58N 49°24' E 001°01'0 0.0
2018-Feb-20 18:28N 49°24' E 001°01'0 0.0
2018-Feb-20 17:58N 49°24' E 001°01'0 0.0
2018-Feb-20 17:28N 49°24' E 001°01'0 0.0
2018-Feb-20 16:58N 49°24' E 001°01'0 0.0
2018-Feb-20 16:28N 49°24' E 001°01'0 0.0
2018-Feb-20 15:58N 49°24' E 001°01'0 0.0
2018-Feb-20 15:25N 49°24' E 001°01'0 0.0
2018-Feb-20 14:58N 49°24' E 001°01'0 0.0
2018-Feb-20 14:28N 49°24' E 001°01'0 0.0
2018-Feb-20 13:58N 49°24' E 001°01'0 0.0
2018-Feb-20 13:28N 49°24' E 001°01'0 0.0
2018-Feb-20 12:58N 49°24' E 001°01'0 0.0
2018-Feb-20 12:28N 49°24' E 001°01'0 0.0
2018-Feb-20 11:49N 49°24' E 001°01'0 0.0
2018-Feb-20 11:28N 49°24' E 001°01'0 0.0
2018-Feb-20 10:58N 49°24' E 001°01'0 0.0
2018-Feb-20 10:28N 49°24' E 001°01'0 0.0
2018-Feb-20 09:58N 49°24' E 001°01'0 0.0
2018-Feb-20 09:25N 49°24' E 001°01'0 0.0
2018-Feb-20 08:58N 49°24' E 001°01'0 0.0
2018-Feb-20 08:25N 49°24' E 001°01'0 0.0
2018-Feb-20 07:58N 49°24' E 001°01'0 0.0
2018-Feb-20 07:28N 49°24' E 001°01'0 0.0
2018-Feb-20 06:58N 49°24' E 001°01'0 0.0
2018-Feb-20 06:28N 49°24' E 001°01'0 0.0
2018-Feb-20 05:55N 49°24' E 001°01'0 0.0
2018-Feb-20 05:28N 49°24' E 001°01'0 0.0
2018-Feb-20 04:55N 49°24' E 001°01'0 0.0
2018-Feb-20 04:28N 49°24' E 001°01'0 0.0
2018-Feb-20 03:58N 49°24' E 001°01'0 0.0
2018-Feb-20 03:31N 49°24' E 001°01'1 2.2
2018-Feb-20 03:01N 49°23' E 001°01'1 2.3
2018-Feb-20 02:31N 49°22' E 000°60'3 6.2
2018-Feb-20 02:01N 49°23' E 000°55'510.7
2018-Feb-20 01:31N 49°28' E 000°56'3 6.3
2018-Feb-20 01:01N 49°27' E 000°51'3 6.1
2018-Feb-20 00:31N 49°24' E 000°49'4 8.8
2018-Feb-20 00:01N 49°29' E 000°47'4 8.7
2018-Feb-19 23:31N 49°31' E 000°42'611.3
2018-Feb-19 23:00N 49°26' E 000°38'510.5
2018-Feb-19 22:30N 49°29' E 000°31'612.6
2018-Feb-19 22:00N 49°26' E 000°22'713.7
2018-Feb-19 21:31N 49°26' E 000°12'714.1
2018-Feb-19 21:01N 49°27' E 000°01'611.0
2018-Feb-19 20:30N 49°29' W 000°07'510.6
2018-Feb-19 20:00N 49°31' W 000°15'713.0
2018-Feb-19 19:30N 49°33' W 000°24'612.6
2018-Feb-19 19:00N 49°36' W 000°33'612.4
2018-Feb-19 18:30N 49°39' W 000°41'510.5
2018-Feb-19 18:00N 49°42' W 000°47'1 1.2
2018-Feb-19 17:25N 49°42' W 000°47'1 1.5
2018-Feb-19 16:55N 49°41' W 000°46'1 2.3
2018-Feb-19 16:30N 49°41' W 000°45'5 9.5
2018-Feb-19 16:00N 49°45' W 000°41'612.1
2018-Feb-19 15:30N 49°50' W 000°37'510.6
2018-Feb-19 15:00N 49°56' W 000°37'3 3.6
2018-Feb-19 14:18N 49°58' W 000°38'0 0.1
2018-Feb-19 14:00N 49°58' W 000°38'0 0.7
2018-Feb-19 13:27N 49°58' W 000°39'1 1.4
2018-Feb-19 13:00N 49°58' W 000°40'1 2.1
2018-Feb-19 12:18N 49°58' W 000°42'1 2.7
2018-Feb-19 12:00N 49°58' W 000°43'2 3.2
2018-Feb-19 11:30N 49°58' W 000°46'2 3.5
2018-Feb-19 11:00N 49°58' W 000°49'2 3.7
2018-Feb-19 10:30N 49°58' W 000°52'2 3.9
2018-Feb-19 10:00N 49°58' W 000°55'2 4.0
2018-Feb-19 09:30N 49°58' W 000°58'2 3.9
2018-Feb-19 09:00N 49°58' W 001°01'2 3.4
2018-Feb-19 08:31N 49°58' W 001°03'1 2.4
2018-Feb-19 07:59N 49°58' W 001°05'1 1.5
2018-Feb-19 07:29N 49°58' W 001°06'0 0.4
2018-Feb-19 06:59N 49°58' W 001°07'0 0.5
2018-Feb-19 06:29N 49°58' W 001°06'1 1.4
2018-Feb-19 05:59N 49°58' W 001°05'1 2.0
2018-Feb-19 05:27N 49°58' W 001°04'1 2.7
2018-Feb-19 05:01N 49°58' W 001°02'1 2.9
2018-Feb-19 04:30N 49°58' W 000°60'1 2.9
2018-Feb-19 04:01N 49°57' W 000°57'1 2.8
2018-Feb-19 03:30N 49°57' W 000°55'1 2.4
2018-Feb-19 03:00N 49°57' W 000°53'1 1.9
2018-Feb-19 02:27N 49°56' W 000°52'1 1.4
2018-Feb-19 02:00N 49°56' W 000°51'0 0.8
2018-Feb-19 01:30N 49°56' W 000°51'0 0.5
2018-Feb-19 01:00N 49°56' W 000°51'1 1.0
2018-Feb-19 00:30N 49°56' W 000°52'1 1.8
2018-Feb-19 00:00N 49°55' W 000°53'1 2.4
2018-Feb-18 23:30N 49°55' W 000°55'1 2.9
2018-Feb-18 23:00N 49°55' W 000°57'2 3.4
2018-Feb-18 22:30N 49°55' W 000°60'2 3.8
2018-Feb-18 22:00N 49°55' W 001°03'2 4.1
2018-Feb-18 21:30N 49°55' W 001°06'3 6.2
2018-Feb-18 21:00N 49°56' W 001°10'510.8
2018-Feb-18 20:30N 50°00' W 001°16'3 4.9
2018-Feb-18 19:58N 50°02' W 001°19'1 2.1
2018-Feb-18 19:28N 50°02' W 001°20'1 1.2
2018-Feb-18 18:58N 50°01' W 001°21'1 1.1
2018-Feb-18 18:30N 50°01' W 001°22'2 4.5
2018-Feb-18 18:00N 50°01' W 001°26'2 3.8
2018-Feb-18 17:30N 50°01' W 001°28'2 4.1
2018-Feb-18 17:00N 50°01' W 001°32'3 5.2
2018-Feb-18 16:30N 50°01' W 001°36'1 2.2
2018-Feb-18 16:00N 50°01' W 001°34'2 3.8
2018-Feb-18 15:30N 50°01' W 001°31'2 3.7
2018-Feb-18 15:00N 50°01' W 001°28'1 2.0
2018-Feb-18 14:29N 50°01' W 001°27'4 7.4
2018-Feb-18 14:00N 49°59' W 001°31'510.0
2018-Feb-18 13:30N 49°57' W 001°39'611.3
2018-Feb-18 13:00N 49°57' W 001°47'612.2
2018-Feb-18 12:30N 49°57' W 001°57'612.8
2018-Feb-18 12:00N 49°56' W 002°07'712.9
2018-Feb-18 11:30N 49°56' W 002°17'814.0
2018-Feb-18 10:54N 49°54' W 002°29'714.1
2018-Feb-18 10:25N 49°52' W 002°39'714.1
2018-Feb-18 09:57N 49°50' W 002°49'814.2
2018-Feb-18 09:25N 49°47' W 003°00'814.0
2018-Feb-18 08:51N 49°43' W 003°10'9014.0
2018-Feb-18 02:23N 48°58' W 005°10'512.7
2018-Feb-18 01:58N 48°55' W 005°17'612.3
2018-Feb-18 01:31N 48°52' W 005°25'811.8
2018-Feb-18 00:49N 48°48' W 005°35'411.2
2018-Feb-18 00:30N 48°45' W 005°38'911.1
2018-Feb-17 23:42N 48°37' W 005°44'710.8
2018-Feb-17 23:01N 48°30' W 005°48'1010.9
2018-Feb-17 22:06N 48°21' W 005°54'5912.2
2018-Feb-17 17:13N 47°33' W 006°46'22010.8
2018-Feb-16 20:54N 43°57' W 005°42'510.5
2018-Feb-16 20:29N 43°53' W 005°41'511.0
2018-Feb-16 20:00N 43°47' W 005°40'611.2
2018-Feb-16 19:30N 43°42' W 005°39'611.7
2018-Feb-16 19:00N 43°36' W 005°39'3 4.3
2018-Feb-16 18:18N 43°34' W 005°41'0 0.0
2018-Feb-16 18:00N 43°34' W 005°41'0 0.0
2018-Feb-16 17:30N 43°34' W 005°41'0 0.0
2018-Feb-16 17:00N 43°34' W 005°41'0 0.0
2018-Feb-16 16:24N 43°34' W 005°41'0 0.0
2018-Feb-16 15:54N 43°34' W 005°41'0 0.0
2018-Feb-16 15:30N 43°34' W 005°41'0 0.0
2018-Feb-16 15:00N 43°34' W 005°41'0 0.0
2018-Feb-16 14:24N 43°34' W 005°41'0 0.0
2018-Feb-16 13:59N 43°34' W 005°41'0 0.0
2018-Feb-16 13:30N 43°34' W 005°41'0 0.0
2018-Feb-16 13:00N 43°34' W 005°41'0 0.0
2018-Feb-16 12:30N 43°34' W 005°41'0 0.0
2018-Feb-16 11:18N 43°34' W 005°41'0 0.0
2018-Feb-16 10:54N 43°34' W 005°41'0 0.0
2018-Feb-16 10:30N 43°34' W 005°41'0 0.0
2018-Feb-16 09:42N 43°34' W 005°41'0 0.0
2018-Feb-16 09:30N 43°34' W 005°41'0 0.0
2018-Feb-16 09:00N 43°34' W 005°41'0 0.0
2018-Feb-16 08:30N 43°34' W 005°41'0 0.0
2018-Feb-16 08:00N 43°34' W 005°41'0 0.0
2018-Feb-16 07:24N 43°34' W 005°41'0 0.0
2018-Feb-16 07:00N 43°34' W 005°41'0 0.0
2018-Feb-16 06:30N 43°34' W 005°41'0 0.0
2018-Feb-16 06:00N 43°34' W 005°41'0 0.0
2018-Feb-16 05:30N 43°34' W 005°41'0 0.0
2018-Feb-16 04:53N 43°34' W 005°41'0 0.0
2018-Feb-16 04:29N 43°34' W 005°41'0 0.0
2018-Feb-16 03:59N 43°34' W 005°41'0 0.0
2018-Feb-16 03:30N 43°34' W 005°41'0 0.0
2018-Feb-16 02:59N 43°34' W 005°41'0 0.0
2018-Feb-16 02:29N 43°34' W 005°41'0 0.0
2018-Feb-16 01:59N 43°34' W 005°41'0 0.0
2018-Feb-16 01:30N 43°34' W 005°41'0 0.0
2018-Feb-15 20:59N 43°34' W 005°41'0 0.0
2018-Feb-15 20:29N 43°34' W 005°41'0 0.0
2018-Feb-15 19:59N 43°34' W 005°41'0 0.0
2018-Feb-15 19:29N 43°34' W 005°41'0 0.0
2018-Feb-15 18:47N 43°34' W 005°41'0 0.0
2018-Feb-15 18:23N 43°34' W 005°41'0 0.0
2018-Feb-15 18:00N 43°34' W 005°41'0 0.0
2018-Feb-15 17:17N 43°34' W 005°41'0 0.0
2018-Feb-15 16:53N 43°34' W 005°41'0 0.0
2018-Feb-15 16:17N 43°34' W 005°41'0 0.0
2018-Feb-15 15:59N 43°34' W 005°41'0 0.0
2018-Feb-15 15:29N 43°34' W 005°41'0 0.0
2018-Feb-15 14:53N 43°34' W 005°41'0 0.0
2018-Feb-15 14:29N 43°34' W 005°41'0 0.0
2018-Feb-15 13:59N 43°34' W 005°41'0 0.0
2018-Feb-15 13:30N 43°34' W 005°41'0 0.0
2018-Feb-15 12:59N 43°34' W 005°41'0 0.0
2018-Feb-15 12:29N 43°34' W 005°41'0 0.0
2018-Feb-15 11:59N 43°34' W 005°41'0 0.0
2018-Feb-15 11:23N 43°34' W 005°41'0 0.0
2018-Feb-15 10:59N 43°34' W 005°41'0 0.0
2018-Feb-15 10:23N 43°34' W 005°41'0 0.0
2018-Feb-15 09:59N 43°34' W 005°41'0 0.0
2018-Feb-15 09:29N 43°34' W 005°41'0 0.0
2018-Feb-15 08:59N 43°34' W 005°41'0 0.0
2018-Feb-15 08:29N 43°34' W 005°41'0 0.0
2018-Feb-15 07:59N 43°34' W 005°41'0 0.0
2018-Feb-15 07:23N 43°34' W 005°41'0 0.0
2018-Feb-15 06:59N 43°34' W 005°41'0 0.0
2018-Feb-15 06:17N 43°34' W 005°41'0 0.0
2018-Feb-15 05:59N 43°34' W 005°41'0 0.0
2018-Feb-15 05:29N 43°34' W 005°41'0 0.0
2018-Feb-15 04:59N 43°34' W 005°41'0 0.0
2018-Feb-15 04:29N 43°34' W 005°41'0 0.0
2018-Feb-15 03:53N 43°34' W 005°41'0 0.0
2018-Feb-15 03:23N 43°34' W 005°41'0 0.0
2018-Feb-15 02:53N 43°34' W 005°41'0 0.0
2018-Feb-15 02:23N 43°34' W 005°41'0 0.0
2018-Feb-15 01:59N 43°34' W 005°41'0 0.0
2018-Feb-15 01:23N 43°34' W 005°41'0 0.0
2018-Feb-15 00:59N 43°34' W 005°41'0 0.0
2018-Feb-15 00:29N 43°34' W 005°41'0 0.0
2018-Feb-14 23:59N 43°34' W 005°41'0 0.0
2018-Feb-14 23:29N 43°34' W 005°41'0 0.0
2018-Feb-14 22:53N 43°34' W 005°41'0 0.0
2018-Feb-14 20:47N 43°34' W 005°41'0 0.0
2018-Feb-14 20:29N 43°34' W 005°41'0 0.0
2018-Feb-14 19:59N 43°34' W 005°41'0 0.0
2018-Feb-14 19:29N 43°34' W 005°41'0 0.0
2018-Feb-14 18:59N 43°34' W 005°41'0 0.0
2018-Feb-14 18:29N 43°34' W 005°41'0 0.0
2018-Feb-14 17:59N 43°34' W 005°41'0 0.0
2018-Feb-14 17:29N 43°34' W 005°41'0 0.0
2018-Feb-14 16:59N 43°34' W 005°41'0 0.0
2018-Feb-14 16:29N 43°34' W 005°41'0 0.0
2018-Feb-14 15:59N 43°34' W 005°41'0 0.0
2018-Feb-14 15:29N 43°34' W 005°41'0 0.0
2018-Feb-14 14:53N 43°34' W 005°41'0 0.0
2018-Feb-14 14:11N 43°34' W 005°41'0 0.0
2018-Feb-14 13:59N 43°34' W 005°41'0 0.0
2018-Feb-14 13:29N 43°34' W 005°41'0 0.0
2018-Feb-14 12:53N 43°34' W 005°41'0 0.0
2018-Feb-14 12:23N 43°34' W 005°41'0 0.0
2018-Feb-14 11:59N 43°34' W 005°41'0 0.0
2018-Feb-14 11:23N 43°34' W 005°41'0 0.0
2018-Feb-14 10:59N 43°34' W 005°41'0 0.0
2018-Feb-14 10:23N 43°34' W 005°41'0 0.0
2018-Feb-14 09:59N 43°34' W 005°41'0 0.0
2018-Feb-14 09:29N 43°34' W 005°41'0 0.0
2018-Feb-14 08:35N 43°34' W 005°41'0 0.0
2018-Feb-14 08:23N 43°34' W 005°41'0 0.0
2018-Feb-14 07:59N 43°34' W 005°41'0 0.0
2018-Feb-14 07:23N 43°34' W 005°41'0 0.0
2018-Feb-14 06:59N 43°34' W 005°41'0 0.0
2018-Feb-14 06:29N 43°34' W 005°41'0 0.0
2018-Feb-14 05:59N 43°34' W 005°41'0 0.0
2018-Feb-14 05:29N 43°34' W 005°41'0 0.0
2018-Feb-14 04:47N 43°34' W 005°41'0 0.0
2018-Feb-14 04:29N 43°34' W 005°41'0 0.0
2018-Feb-14 03:59N 43°34' W 005°41'0 0.0
2018-Feb-14 03:29N 43°34' W 005°41'0 0.0
2018-Feb-14 02:59N 43°34' W 005°41'0 0.0
2018-Feb-14 02:29N 43°34' W 005°41'0 0.0
2018-Feb-14 01:59N 43°34' W 005°41'0 0.0
2018-Feb-14 01:29N 43°34' W 005°41'0 0.0
2018-Feb-14 00:53N 43°34' W 005°41'0 0.0
2018-Feb-14 00:23N 43°34' W 005°41'0 0.0
2018-Feb-13 23:59N 43°34' W 005°41'0 0.0
2018-Feb-13 23:17N 43°34' W 005°41'0 0.0
2018-Feb-13 22:59N 43°34' W 005°41'0 0.0
2018-Feb-13 22:23N 43°34' W 005°41'0 0.0
2018-Feb-13 20:41N 43°34' W 005°41'0 0.0
2018-Feb-13 20:29N 43°34' W 005°41'0 0.0
2018-Feb-13 19:59N 43°34' W 005°41'0 0.0
2018-Feb-13 19:23N 43°34' W 005°41'0 0.0
2018-Feb-13 18:59N 43°34' W 005°41'0 0.0
2018-Feb-13 18:11N 43°34' W 005°41'0 0.0
2018-Feb-13 15:11N 43°34' W 005°41'0 0.0
2018-Feb-13 14:59N 43°34' W 005°41'  

Dump ship's entire track history